createdAt,value
2022-08-11T00:00:01.703Z,32.68
2022-08-11T00:02:28.019Z,32.83
2022-08-11T00:04:54.339Z,32.54
2022-08-11T00:07:20.648Z,33.00
2022-08-11T00:09:46.958Z,32.60
2022-08-11T00:12:13.261Z,32.93
2022-08-11T00:14:39.662Z,32.74
2022-08-11T00:17:06.000Z,32.77
2022-08-11T00:20:12.583Z,32.59
2022-08-11T00:22:18.585Z,32.69
2022-08-11T00:24:54.715Z,32.74
2022-08-11T00:27:23.638Z,32.71
2022-08-11T00:29:51.719Z,32.64
2022-08-11T00:32:18.319Z,32.98
2022-08-11T00:34:44.627Z,32.54
2022-08-11T00:37:10.935Z,32.70
2022-08-11T00:39:37.259Z,32.62
2022-08-11T00:42:03.603Z,32.78
2022-08-11T00:44:29.904Z,32.51
2022-08-11T00:46:56.848Z,32.67
2022-08-11T00:49:23.159Z,32.73
2022-08-11T00:52:04.595Z,32.43
2022-08-11T00:54:33.145Z,32.65
2022-08-11T00:56:59.621Z,32.31
2022-08-11T00:59:35.029Z,32.56
2022-08-11T01:02:02.188Z,32.54
2022-08-11T01:04:28.491Z,32.76
2022-08-11T01:06:54.789Z,32.25
2022-08-11T01:09:22.278Z,32.62
2022-08-11T01:11:55.874Z,32.37
2022-08-11T01:14:33.702Z,32.51
2022-08-11T01:17:00.938Z,32.53
2022-08-11T01:19:27.240Z,32.37
2022-08-11T01:21:53.586Z,32.49
2022-08-11T01:24:21.427Z,31.98
2022-08-11T01:26:47.727Z,32.23
2022-08-11T01:29:14.027Z,32.50
2022-08-11T01:31:40.333Z,32.00
2022-08-11T01:34:06.639Z,32.38
2022-08-11T01:36:32.941Z,32.10
2022-08-11T01:38:59.239Z,32.00
2022-08-11T01:41:25.540Z,32.35
2022-08-11T01:43:51.848Z,32.50
2022-08-11T01:46:18.169Z,32.33
2022-08-11T01:48:44.476Z,32.27
2022-08-11T01:51:17.301Z,31.84
2022-08-11T01:53:43.822Z,32.21
2022-08-11T01:56:10.123Z,32.34
2022-08-11T01:58:40.746Z,32.13
2022-08-11T02:01:10.693Z,32.11
2022-08-11T02:03:37.026Z,31.82
2022-08-11T02:06:03.336Z,32.06
2022-08-11T02:08:33.254Z,31.79
2022-08-11T02:11:00.050Z,31.78
2022-08-11T02:13:35.394Z,31.68
2022-08-11T02:16:02.226Z,31.67
2022-08-11T02:18:28.530Z,31.75
2022-08-11T02:20:54.835Z,32.16
2022-08-11T02:24:05.742Z,32.15
2022-08-11T02:26:07.427Z,31.93
2022-08-11T02:28:38.395Z,31.68
2022-08-11T02:31:06.513Z,31.59
2022-08-11T02:33:40.944Z,32.05
2022-08-11T02:36:07.234Z,31.78
2022-08-11T02:38:33.564Z,31.76
2022-08-11T02:41:01.944Z,31.63
2022-08-11T02:43:28.277Z,31.45
2022-08-11T02:45:54.619Z,31.85
2022-08-11T02:48:20.983Z,31.45
2022-08-11T02:50:47.298Z,31.89
2022-08-11T02:53:13.601Z,31.83
2022-08-11T02:55:46.914Z,31.72
2022-08-11T02:58:26.882Z,31.56
2022-08-11T03:00:53.684Z,31.50
2022-08-11T03:03:20.038Z,31.61
2022-08-11T03:05:46.388Z,31.72
2022-08-11T03:08:14.998Z,31.52
2022-08-11T03:10:41.342Z,31.42
2022-08-11T03:13:07.695Z,31.61
2022-08-11T03:15:34.051Z,31.68
2022-08-11T03:18:00.402Z,31.58
2022-08-11T03:20:33.211Z,31.50
2022-08-11T03:23:04.819Z,31.46
2022-08-11T03:25:46.798Z,31.44
2022-08-11T03:28:13.155Z,31.42
2022-08-11T03:30:39.498Z,31.59
2022-08-11T03:33:05.848Z,31.33
2022-08-11T03:35:32.200Z,31.71
2022-08-11T03:37:58.556Z,31.43
2022-08-11T03:40:24.915Z,31.71
2022-08-11T03:42:51.267Z,31.27
2022-08-11T03:45:18.247Z,31.38
2022-08-11T03:47:52.603Z,31.42
2022-08-11T03:50:21.844Z,31.35
2022-08-11T03:52:48.207Z,31.66
2022-08-11T03:55:14.560Z,31.66
2022-08-11T03:57:40.911Z,31.77
2022-08-11T04:00:07.279Z,31.66
2022-08-11T04:02:33.621Z,31.50
2022-08-11T04:04:59.979Z,31.70
2022-08-11T04:07:26.533Z,31.64
2022-08-11T04:09:52.886Z,31.44
2022-08-11T04:12:35.611Z,31.44
2022-08-11T04:15:03.341Z,31.42
2022-08-11T04:17:29.703Z,31.53
2022-08-11T04:19:56.051Z,31.44
2022-08-11T04:22:22.421Z,31.74
2022-08-11T04:24:50.607Z,31.60
2022-08-11T04:27:17.116Z,31.77
2022-08-11T04:30:03.824Z,31.50
2022-08-11T04:32:31.965Z,31.63
2022-08-11T04:34:58.322Z,31.63
2022-08-11T04:37:24.679Z,31.85
2022-08-11T04:39:51.056Z,31.83
2022-08-11T04:42:17.474Z,31.74
2022-08-11T04:44:43.822Z,31.80
2022-08-11T04:47:10.181Z,31.78
2022-08-11T04:49:36.541Z,31.75
2022-08-11T04:52:02.901Z,31.92
2022-08-11T04:54:29.254Z,31.48
2022-08-11T04:56:55.615Z,31.67
2022-08-11T04:59:21.964Z,31.79
2022-08-11T05:01:48.368Z,31.52
2022-08-11T05:04:14.772Z,31.73
2022-08-11T05:06:41.144Z,31.84
2022-08-11T05:09:07.491Z,31.85
2022-08-11T05:11:33.846Z,31.58
2022-08-11T05:14:00.208Z,31.88
2022-08-11T05:16:26.561Z,31.79
2022-08-11T05:18:52.904Z,31.94
2022-08-11T05:21:19.255Z,31.83
2022-08-11T05:23:45.611Z,31.48
2022-08-11T05:26:46.523Z,31.49
2022-08-11T05:28:58.295Z,31.89
2022-08-11T05:31:24.667Z,31.56
2022-08-11T05:33:51.025Z,31.71
2022-08-11T05:36:17.386Z,31.87
2022-08-11T05:38:43.730Z,31.90
2022-08-11T05:41:10.081Z,31.89
2022-08-11T05:43:36.432Z,31.97
2022-08-11T05:46:06.208Z,31.50
2022-08-11T05:48:34.516Z,31.70
2022-08-11T05:51:00.934Z,31.58
2022-08-11T05:53:45.873Z,31.75
2022-08-11T05:56:12.920Z,31.83
2022-08-11T05:58:42.263Z,31.92
2022-08-11T06:01:09.381Z,31.91
2022-08-11T06:03:35.762Z,32.21
2022-08-11T06:06:02.125Z,32.12
2022-08-11T06:08:28.498Z,32.08
2022-08-11T06:10:54.848Z,32.20
2022-08-11T06:13:21.208Z,32.19
2022-08-11T06:15:47.570Z,32.21
2022-08-11T06:18:13.932Z,32.00
2022-08-11T06:20:40.277Z,32.25
2022-08-11T06:23:06.637Z,32.10
2022-08-11T06:25:33.023Z,32.14
2022-08-11T06:27:59.382Z,32.06
2022-08-11T06:30:25.793Z,31.95
2022-08-11T06:32:52.190Z,32.43
2022-08-11T06:35:18.540Z,32.27
2022-08-11T06:37:44.891Z,32.07
2022-08-11T06:40:11.241Z,32.21
2022-08-11T06:42:37.691Z,32.28
2022-08-11T06:45:04.147Z,32.36
2022-08-11T06:47:30.498Z,32.01
2022-08-11T06:49:56.874Z,32.29
2022-08-11T06:52:34.536Z,32.25
2022-08-11T06:55:56.203Z,32.53
2022-08-11T06:57:55.933Z,32.35
2022-08-11T07:00:22.296Z,32.21
2022-08-11T07:02:48.655Z,32.51
2022-08-11T07:05:15.003Z,32.11
2022-08-11T07:07:43.778Z,32.37
2022-08-11T07:10:10.132Z,32.07
2022-08-11T07:12:36.561Z,32.15
2022-08-11T07:15:02.951Z,32.42
2022-08-11T07:17:29.307Z,32.31
2022-08-11T07:19:56.924Z,32.34
2022-08-11T07:22:23.378Z,32.52
2022-08-11T07:25:01.742Z,32.52
2022-08-11T07:27:33.613Z,32.44
2022-08-11T07:30:01.783Z,32.55
2022-08-11T07:32:28.126Z,32.39
2022-08-11T07:34:54.482Z,32.43
2022-08-11T07:37:20.838Z,32.41
2022-08-11T07:39:47.335Z,32.22
2022-08-11T07:42:13.749Z,32.38
2022-08-11T07:44:40.118Z,32.71
2022-08-11T07:47:08.159Z,32.49
2022-08-11T07:49:34.509Z,32.36
2022-08-11T07:52:00.869Z,32.77
2022-08-11T07:54:28.085Z,32.51
2022-08-11T07:57:09.315Z,32.46
2022-08-11T08:00:00.622Z,33.04
2022-08-11T08:02:31.168Z,32.50
2022-08-11T08:04:57.526Z,32.65
2022-08-11T08:07:23.877Z,32.50
2022-08-11T08:09:50.753Z,32.61
2022-08-11T08:12:17.104Z,32.43
2022-08-11T08:14:43.456Z,32.49
2022-08-11T08:17:09.813Z,32.49
2022-08-11T08:19:36.161Z,32.28
2022-08-11T08:22:37.320Z,32.50
2022-08-11T08:24:49.623Z,32.67
2022-08-11T08:27:15.986Z,32.70
2022-08-11T08:29:42.349Z,32.83
2022-08-11T08:32:08.701Z,32.45
2022-08-11T08:34:35.048Z,32.57
2022-08-11T08:37:01.402Z,32.72
2022-08-11T08:39:27.798Z,32.68
2022-08-11T08:41:54.180Z,33.19
2022-08-11T08:44:37.654Z,32.73
2022-08-11T08:47:05.087Z,32.62
2022-08-11T08:49:31.434Z,32.55
2022-08-11T08:52:19.363Z,32.55
2022-08-11T08:54:44.134Z,33.04
2022-08-11T08:57:10.486Z,32.82
2022-08-11T08:59:47.394Z,33.02
2022-08-11T09:02:14.907Z,33.30
2022-08-11T09:04:41.255Z,33.17
2022-08-11T09:07:07.605Z,32.85
2022-08-11T09:09:34.023Z,33.32
2022-08-11T09:12:00.371Z,33.47
2022-08-11T09:14:26.729Z,33.03
2022-08-11T09:16:53.090Z,33.27
2022-08-11T09:19:19.446Z,33.21
2022-08-11T09:21:49.248Z,32.93
2022-08-11T09:24:25.004Z,32.77
2022-08-11T09:26:52.326Z,32.99
2022-08-11T09:29:18.692Z,33.20
2022-08-11T09:31:45.041Z,33.04
2022-08-11T09:34:11.391Z,33.30
2022-08-11T09:36:37.750Z,33.15
2022-08-11T09:39:04.106Z,33.19
2022-08-11T09:42:01.363Z,33.18
2022-08-11T09:44:16.783Z,33.10
2022-08-11T09:46:45.794Z,33.41
2022-08-11T09:49:12.151Z,33.32
2022-08-11T09:51:38.812Z,33.26
2022-08-11T09:54:07.727Z,33.45
2022-08-11T09:56:34.097Z,33.25
2022-08-11T09:59:00.442Z,33.27
2022-08-11T10:01:26.977Z,33.26
2022-08-11T10:03:53.715Z,32.90
2022-08-11T10:06:20.079Z,33.28
2022-08-11T10:08:59.640Z,33.32
2022-08-11T10:11:26.000Z,33.14
2022-08-11T10:14:32.181Z,33.12
2022-08-11T10:16:38.695Z,33.37
2022-08-11T10:19:05.059Z,33.05
2022-08-11T10:21:31.475Z,33.32
2022-08-11T10:24:01.240Z,33.03
2022-08-11T10:26:32.431Z,32.81
2022-08-11T10:29:12.502Z,33.41
2022-08-11T10:31:57.607Z,33.16
2022-08-11T10:34:26.702Z,32.77
2022-08-11T10:36:55.479Z,33.35
2022-08-11T10:39:21.980Z,33.23
2022-08-11T10:42:07.591Z,33.16
2022-08-11T10:44:34.718Z,33.19
2022-08-11T10:47:01.075Z,32.89
2022-08-11T10:49:27.437Z,33.29
2022-08-11T10:51:54.062Z,32.97
2022-08-11T10:54:25.212Z,33.20
2022-08-11T10:56:51.572Z,33.54
2022-08-11T10:59:17.924Z,33.30
2022-08-11T11:01:44.336Z,33.46
2022-08-11T11:04:10.712Z,33.21
2022-08-11T11:06:37.068Z,33.14
2022-08-11T11:09:04.729Z,33.50
2022-08-11T11:11:31.560Z,33.02
2022-08-11T11:13:57.921Z,33.17
2022-08-11T11:16:24.864Z,33.23
2022-08-11T11:19:00.582Z,33.39
2022-08-11T11:21:27.635Z,33.32
2022-08-11T11:23:53.991Z,33.58
2022-08-11T11:26:27.587Z,33.39
2022-08-11T11:28:54.331Z,33.49
2022-08-11T11:31:21.262Z,33.59
2022-08-11T11:34:06.462Z,33.45
2022-08-11T11:36:33.962Z,33.35
2022-08-11T11:39:00.322Z,33.58
2022-08-11T11:41:26.676Z,33.32
2022-08-11T11:43:53.017Z,33.31
2022-08-11T11:46:19.387Z,33.08
2022-08-11T11:48:45.747Z,33.05
2022-08-11T11:51:12.092Z,33.01
2022-08-11T11:53:38.449Z,32.98
2022-08-11T11:56:04.818Z,33.25
2022-08-11T11:58:31.180Z,33.46
2022-08-11T12:00:57.567Z,33.46
2022-08-11T12:03:23.975Z,32.97
2022-08-11T12:05:50.571Z,33.38
2022-08-11T12:08:16.924Z,33.26
2022-08-11T12:10:43.282Z,33.05
2022-08-11T12:13:09.632Z,33.28
2022-08-11T12:16:31.599Z,33.35
2022-08-11T12:18:22.299Z,33.07
2022-08-11T12:20:48.666Z,32.94
2022-08-11T12:23:15.020Z,33.07
2022-08-11T12:25:41.678Z,33.23
2022-08-11T12:28:08.103Z,33.38
2022-08-11T12:30:34.474Z,33.34
2022-08-11T12:33:00.861Z,33.29
2022-08-11T12:35:27.215Z,32.86
2022-08-11T12:37:57.300Z,32.95
2022-08-11T12:40:42.559Z,33.22
2022-08-11T12:43:21.253Z,33.00
2022-08-11T12:45:48.560Z,33.39
2022-08-11T12:49:00.047Z,33.38
2022-08-11T12:51:01.265Z,32.92
2022-08-11T12:53:27.622Z,33.14
2022-08-11T12:56:07.651Z,32.93
2022-08-11T12:58:34.332Z,33.04
2022-08-11T13:01:00.706Z,33.14
2022-08-11T13:03:27.090Z,33.09
2022-08-11T13:05:53.451Z,33.19
2022-08-11T13:08:19.834Z,33.30
2022-08-11T13:10:46.182Z,33.02
2022-08-11T13:13:52.786Z,33.07
2022-08-11T13:15:58.902Z,32.87
2022-08-11T13:18:25.252Z,33.23
2022-08-11T13:20:51.614Z,33.30
2022-08-11T13:23:17.973Z,32.88
2022-08-11T13:25:44.343Z,32.95
2022-08-11T13:28:10.711Z,33.04
2022-08-11T13:30:40.353Z,33.24
2022-08-11T13:33:08.434Z,32.93
2022-08-11T13:35:34.887Z,33.05
2022-08-11T13:38:19.285Z,33.04
2022-08-11T13:40:55.610Z,32.94
2022-08-11T13:43:22.655Z,33.06
2022-08-11T13:45:49.021Z,33.19
2022-08-11T13:48:15.387Z,33.04
2022-08-11T13:50:41.737Z,33.24
2022-08-11T13:53:08.083Z,32.78
2022-08-11T13:55:52.269Z,32.83
2022-08-11T13:58:40.746Z,32.76
2022-08-11T14:01:42.591Z,32.66
2022-08-11T14:04:28.778Z,32.89
2022-08-11T14:06:37.956Z,32.57
2022-08-11T14:09:04.321Z,32.75
2022-08-11T14:12:22.224Z,32.67
2022-08-11T14:14:17.212Z,32.60
2022-08-11T14:16:43.562Z,32.88
2022-08-11T14:19:09.911Z,33.08
2022-08-11T14:21:36.266Z,32.56
2022-08-11T14:24:02.623Z,33.01
2022-08-11T14:26:28.976Z,32.76
2022-08-11T14:28:55.354Z,32.74
2022-08-11T14:31:21.717Z,32.69
2022-08-11T14:34:00.045Z,32.82
2022-08-11T14:36:28.116Z,32.79
2022-08-11T14:38:54.484Z,33.00
2022-08-11T14:41:20.841Z,32.63
2022-08-11T14:44:12.788Z,32.97
2022-08-11T14:46:33.599Z,32.81
2022-08-11T14:48:59.964Z,32.78
2022-08-11T14:51:26.335Z,32.53
2022-08-11T14:53:58.734Z,32.82
2022-08-11T14:56:25.374Z,32.74
2022-08-11T14:58:51.760Z,32.65
2022-08-11T15:01:18.248Z,33.01
2022-08-11T15:04:22.410Z,32.93
2022-08-11T15:06:31.001Z,32.74
2022-08-11T15:08:57.371Z,32.71
2022-08-11T15:11:23.740Z,32.94
2022-08-11T15:13:50.080Z,32.57
2022-08-11T15:16:16.425Z,32.90
2022-08-11T15:18:42.777Z,33.10
2022-08-11T15:21:09.132Z,32.75
2022-08-11T15:23:35.481Z,32.80
2022-08-11T15:26:01.848Z,32.71
2022-08-11T15:28:28.207Z,32.50
2022-08-11T15:30:54.580Z,32.68
2022-08-11T15:33:20.963Z,32.53
2022-08-11T15:35:47.335Z,32.88
2022-08-11T15:38:13.702Z,32.59
2022-08-11T15:40:40.093Z,32.52
2022-08-11T15:43:12.781Z,32.48
2022-08-11T15:45:39.391Z,32.44
2022-08-11T15:48:07.965Z,32.73
2022-08-11T15:50:36.991Z,32.53
2022-08-11T15:53:03.348Z,32.48
2022-08-11T15:55:29.702Z,32.41
2022-08-11T15:57:56.061Z,32.78
2022-08-11T16:00:24.494Z,32.53
2022-08-11T16:02:50.982Z,32.36
2022-08-11T16:05:44.983Z,32.36
2022-08-11T16:08:03.677Z,32.53
2022-08-11T16:10:30.030Z,32.11
2022-08-11T16:12:59.985Z,32.46
2022-08-11T16:15:26.341Z,32.42
2022-08-11T16:17:52.687Z,32.27
2022-08-11T16:20:19.045Z,32.38
2022-08-11T16:23:01.360Z,32.24
2022-08-11T16:27:02.604Z,32.60
2022-08-11T16:28:15.009Z,32.39
2022-08-11T16:30:41.385Z,32.19
2022-08-11T16:33:50.636Z,32.29
2022-08-11T16:35:54.108Z,32.45
2022-08-11T16:38:20.559Z,32.35
2022-08-11T16:40:46.984Z,32.28
2022-08-11T16:43:13.338Z,32.15
2022-08-11T16:45:39.695Z,32.46
2022-08-11T16:48:35.178Z,32.23
2022-08-11T16:50:52.426Z,32.24
2022-08-11T16:53:18.807Z,32.28
2022-08-11T16:55:52.552Z,32.29
2022-08-11T16:58:19.261Z,32.24
2022-08-11T17:00:46.109Z,32.67
2022-08-11T17:03:12.602Z,32.45
2022-08-11T17:05:54.155Z,32.37
2022-08-11T17:08:22.779Z,32.50
2022-08-11T17:10:55.425Z,32.73
2022-08-11T17:13:24.070Z,32.79
2022-08-11T17:15:50.985Z,32.29
2022-08-11T17:18:17.431Z,32.63
2022-08-11T17:20:44.262Z,32.28
2022-08-11T17:23:13.208Z,32.38
2022-08-11T17:25:59.255Z,32.29
2022-08-11T17:28:26.173Z,32.50
2022-08-11T17:30:52.536Z,32.29
2022-08-11T17:33:18.886Z,32.54
2022-08-11T17:35:45.260Z,32.40
2022-08-11T17:38:11.622Z,32.21
2022-08-11T17:40:37.980Z,32.23
2022-08-11T17:43:04.323Z,32.13
2022-08-11T17:45:30.664Z,32.47
2022-08-11T17:47:57.021Z,32.65
2022-08-11T17:50:23.377Z,32.41
2022-08-11T17:52:49.733Z,32.43
2022-08-11T17:55:16.095Z,32.41
2022-08-11T17:58:02.423Z,32.46
2022-08-11T18:00:28.766Z,32.36
2022-08-11T18:02:55.133Z,32.47
2022-08-11T18:05:21.479Z,32.51
2022-08-11T18:07:47.828Z,32.19
2022-08-11T18:10:14.180Z,32.37
2022-08-11T18:12:40.530Z,32.64
2022-08-11T18:15:06.878Z,32.48
2022-08-11T18:17:33.269Z,32.30
2022-08-11T18:19:59.626Z,32.34
2022-08-11T18:22:25.978Z,32.20
2022-08-11T18:24:52.331Z,32.49
2022-08-11T18:27:21.981Z,32.36
2022-08-11T18:29:48.500Z,32.50
2022-08-11T18:32:21.988Z,32.49
2022-08-11T18:34:49.719Z,32.20
2022-08-11T18:37:20.199Z,32.21
2022-08-11T18:39:55.962Z,32.70
2022-08-11T18:42:29.329Z,32.57
2022-08-11T18:44:56.212Z,32.52
2022-08-11T18:47:22.847Z,32.19
2022-08-11T18:50:01.764Z,32.60
2022-08-11T18:52:29.845Z,32.31
2022-08-11T18:54:56.226Z,32.49
2022-08-11T18:57:22.577Z,32.45
2022-08-11T18:59:48.924Z,32.15
2022-08-11T19:02:15.298Z,32.30
2022-08-11T19:04:41.654Z,32.42
2022-08-11T19:07:08.022Z,32.27
2022-08-11T19:09:34.458Z,32.25
2022-08-11T19:12:00.875Z,32.26
2022-08-11T19:14:27.213Z,32.04
2022-08-11T19:16:53.588Z,32.34
2022-08-11T19:19:19.951Z,32.26
2022-08-11T19:21:46.301Z,32.38
2022-08-11T19:24:12.655Z,32.24
2022-08-11T19:26:39.031Z,32.32
2022-08-11T19:29:05.380Z,32.25
2022-08-11T19:31:31.747Z,32.25
2022-08-11T19:34:02.423Z,32.23
2022-08-11T19:36:36.447Z,32.37
2022-08-11T19:39:02.834Z,32.11
2022-08-11T19:41:52.167Z,32.17
2022-08-11T19:44:16.708Z,32.48
2022-08-11T19:46:43.152Z,32.50
2022-08-11T19:49:09.520Z,32.20
2022-08-11T19:51:36.004Z,32.28
2022-08-11T19:54:02.423Z,32.35
2022-08-11T19:56:28.789Z,32.06
2022-08-11T19:58:55.211Z,32.28
2022-08-11T20:01:21.611Z,32.40
2022-08-11T20:03:47.990Z,32.23
2022-08-11T20:06:14.360Z,32.41
2022-08-11T20:08:40.705Z,32.23
2022-08-11T20:11:07.069Z,32.28
2022-08-11T20:13:33.417Z,31.96
2022-08-11T20:16:00.771Z,32.14
2022-08-11T20:18:27.161Z,32.09
2022-08-11T20:20:53.509Z,32.07
2022-08-11T20:23:19.949Z,32.20
2022-08-11T20:25:46.462Z,32.26
2022-08-11T20:28:12.813Z,32.34
2022-08-11T20:30:39.236Z,32.10
2022-08-11T20:33:05.591Z,32.04
2022-08-11T20:35:31.961Z,32.34
2022-08-11T20:37:58.319Z,32.00
2022-08-11T20:40:24.715Z,32.03
2022-08-11T20:42:51.068Z,32.26
2022-08-11T20:45:17.438Z,32.21
2022-08-11T20:47:59.279Z,32.18
2022-08-11T20:50:26.539Z,32.39
2022-08-11T20:52:55.112Z,32.20
2022-08-11T20:58:08.174Z,32.23
2022-08-11T21:00:41.590Z,32.11
2022-08-11T21:03:10.450Z,32.16
2022-08-11T21:06:09.908Z,32.13
2022-08-11T21:08:25.288Z,32.25
2022-08-11T21:10:52.339Z,32.36
2022-08-11T21:13:26.703Z,32.56
2022-08-11T21:16:01.449Z,32.15
2022-08-11T21:18:29.732Z,32.46
2022-08-11T21:20:56.123Z,32.46
2022-08-11T21:23:24.027Z,32.17
2022-08-11T21:25:50.889Z,32.38
2022-08-11T21:28:17.272Z,32.34
2022-08-11T21:30:43.683Z,32.47
2022-08-11T21:33:10.067Z,32.43
2022-08-11T21:35:36.418Z,32.30
2022-08-11T21:38:11.591Z,32.43
2022-08-11T21:40:37.954Z,32.17
2022-08-11T21:43:04.303Z,32.15
2022-08-11T21:45:30.656Z,32.74
2022-08-11T21:48:01.040Z,32.37
2022-08-11T21:50:27.836Z,32.13
2022-08-11T21:52:54.296Z,32.19
2022-08-11T21:55:21.389Z,32.33
2022-08-11T21:57:50.122Z,32.19
2022-08-11T22:00:16.988Z,32.25
2022-08-11T22:02:44.212Z,32.38
2022-08-11T22:05:18.606Z,32.50
2022-08-11T22:07:44.952Z,32.42
2022-08-11T22:10:41.562Z,32.10
2022-08-11T22:12:57.628Z,32.14
2022-08-11T22:15:24.010Z,32.42
2022-08-11T22:17:53.641Z,32.22
2022-08-11T22:20:22.332Z,32.60
2022-08-11T22:22:51.898Z,32.20
2022-08-11T22:25:19.074Z,32.29
2022-08-11T22:27:47.084Z,32.74
2022-08-11T22:30:13.447Z,32.25
2022-08-11T22:32:39.931Z,32.26
2022-08-11T22:35:06.412Z,32.24
2022-08-11T22:37:32.767Z,32.14
2022-08-11T22:40:02.110Z,32.44
2022-08-11T22:42:33.246Z,32.54
2022-08-11T22:45:00.161Z,32.49
2022-08-11T22:47:27.495Z,32.39
2022-08-11T22:50:04.867Z,32.61
2022-08-11T22:52:31.236Z,32.60
2022-08-11T22:54:57.582Z,32.23
2022-08-11T22:57:23.989Z,32.51
2022-08-11T22:59:50.337Z,32.61
2022-08-11T23:02:16.697Z,32.78
2022-08-11T23:04:43.045Z,32.77
2022-08-11T23:07:09.404Z,32.58
2022-08-11T23:09:35.787Z,32.26
2022-08-11T23:12:06.717Z,32.46
2022-08-11T23:14:34.421Z,32.67
2022-08-11T23:17:00.771Z,32.70
2022-08-11T23:20:08.334Z,32.59
2022-08-11T23:22:13.462Z,32.59
2022-08-11T23:24:39.963Z,32.57
2022-08-11T23:27:06.389Z,32.88
2022-08-11T23:29:32.749Z,32.72
2022-08-11T23:31:59.131Z,32.99
2022-08-11T23:35:02.362Z,32.96
2022-08-11T23:37:11.804Z,33.22
2022-08-11T23:39:38.185Z,33.06
2022-08-11T23:42:04.572Z,33.16
2022-08-11T23:44:30.926Z,32.87
2022-08-11T23:46:57.276Z,32.87
2022-08-11T23:49:23.635Z,32.92
2022-08-11T23:51:49.995Z,33.08
2022-08-11T23:54:16.348Z,33.19
2022-08-11T23:56:42.712Z,32.93
2022-08-11T23:59:09.067Z,33.00
